CheckWX is a tool to help pilots better visualize weather data.  It is not intended as a substitute for an official pre-flight weather briefing.

04:09:48 UTC

KNBG METAR
New Orleans NAS JRB / Alvin Callender Field Airport
New Orleans, Louisiana, USA
Current

15 mins ago

KNBG 250355Z 14006KT 10SM SCT035 SCT080 BKN250 21/20 A2991 RMK AO2 SLP126 T02110200 $
Observed
Apr-25 @ 03:55 UTC
Wind
  • 140° at 6 KTS
Visibility
10 SM
Flight Rules
VFR
Cloud Levels
  • Scattered at 3,500' AGL
  • Scattered at 8,000' AGL
  • Broken at 25,000' AGL
Temperature
21°C / 70°F
Dewpoint
20°C / 68°F
Humidity
94%
Altimeter
29.91" Hg
Pressure
1012.92 hPa
Previous

1 hour ago

KNBG 250255Z 14006KT 10SM SCT036 SCT060 BKN250 22/21 A2991 RMK AO2 SLP128 T02170206 53001 $
Observed
Apr-25 @ 02:55 UTC
Wind
  • 140° at 6 KTS
Visibility
10 SM
Flight Rules
VFR
Cloud Levels
  • Scattered at 3,600' AGL
  • Scattered at 6,000' AGL
  • Broken at 25,000' AGL
Temperature
22°C / 72°F
Dewpoint
21°C / 70°F
Humidity
94%
Altimeter
29.91" Hg
Pressure
1012.92 hPa
Previous

2 hours ago

KNBG 250155Z 14006KT 10SM SCT030 SCT060 BKN250 22/20 A2990 RMK AO2 SLP125 T02220200 $
Observed
Apr-25 @ 01:55 UTC
Wind
  • 140° at 6 KTS
Visibility
10 SM
Flight Rules
VFR
Cloud Levels
  • Scattered at 3,000' AGL
  • Scattered at 6,000' AGL
  • Broken at 25,000' AGL
Temperature
22°C / 72°F
Dewpoint
20°C / 68°F
Humidity
88%
Altimeter
29.9" Hg
Pressure
1012.52 hPa